Time,TemperatureF,DewpointF,PressureIn,WindDirection,WindDirectionDegrees,WindSpeedMPH,WindSpeedGustMPH,Humidity,HourlyPrecipIn,Conditions,Clouds,dailyrainin,SolarRadiationWatts/m^2,SoftwareType,DateUTC
2013-01-09 00:02:00,21.0,9.0,-100.00,WSW,255,2.0,3.0,59,0.00,,,0.00,0.000000,,2013-01-09 07:02:00,
2013-01-09 00:12:00,21.0,9.0,-100.00,WSW,255,2.0,3.0,59,0.00,,,0.00,0.000000,,2013-01-09 07:12:00,
2013-01-09 00:22:00,21.0,9.0,-100.00,WSW,255,2.0,3.0,59,0.00,,,0.00,0.000000,,2013-01-09 07:22:00,
2013-01-09 00:42:00,20.0,8.0,-100.00,NW,308,2.0,3.0,59,0.00,,,0.00,0.000000,,2013-01-09 07:42:00,
2013-01-09 00:52:00,20.0,8.0,-100.00,NW,308,2.0,3.0,59,0.00,,,0.00,0.000000,,2013-01-09 07:52:00,
2013-01-09 01:02:00,20.0,8.0,-100.00,NW,308,2.0,3.0,59,0.00,,,0.00,0.000000,,2013-01-09 08:02:00,
2013-01-09 01:12:00,20.0,8.0,-100.00,NW,308,2.0,3.0,59,0.00,,,0.00,0.000000,,2013-01-09 08:12:00,
2013-01-09 01:22:00,20.0,8.0,-100.00,NW,308,2.0,3.0,59,0.00,,,0.00,0.000000,,2013-01-09 08:22:00,
2013-01-09 01:43:00,21.0,7.0,-100.00,WNW,299,1.0,4.0,54,0.00,,,0.00,0.000000,,2013-01-09 08:43:00,
2013-01-09 01:53:00,21.0,7.0,-100.00,WNW,299,1.0,4.0,54,0.00,,,0.00,0.000000,,2013-01-09 08:53:00,
2013-01-09 02:02:00,21.0,7.0,-100.00,WNW,299,1.0,4.0,54,0.00,,,0.00,0.000000,,2013-01-09 09:02:00,
2013-01-09 02:12:00,21.0,7.0,-100.00,WNW,299,1.0,4.0,54,0.00,,,0.00,0.000000,,2013-01-09 09:12:00,
2013-01-09 02:22:00,21.0,7.0,-100.00,WNW,299,1.0,4.0,54,0.00,,,0.00,0.000000,,2013-01-09 09:22:00,
2013-01-09 02:42:00,21.0,5.0,-100.00,NNW,331,2.0,3.0,50,0.00,,,0.00,0.000000,,2013-01-09 09:42:00,
2013-01-09 02:53:00,21.0,5.0,-100.00,NNW,331,2.0,3.0,50,0.00,,,0.00,0.000000,,2013-01-09 09:53:00,
2013-01-09 03:02:00,21.0,5.0,-100.00,NNW,331,2.0,3.0,50,0.00,,,0.00,0.000000,,2013-01-09 10:02:00,
2013-01-09 03:12:00,21.0,5.0,-100.00,NNW,331,2.0,3.0,50,0.00,,,0.00,0.000000,,2013-01-09 10:12:00,
2013-01-09 03:22:00,21.0,5.0,-100.00,NNW,331,2.0,3.0,50,0.00,,,0.00,0.000000,,2013-01-09 10:22:00,
2013-01-09 03:42:00,21.0,7.0,-100.00,West,263,2.0,3.0,53,0.00,,,0.00,0.000000,,2013-01-09 10:42:00,
2013-01-09 03:52:00,21.0,7.0,-100.00,West,263,2.0,3.0,53,0.00,,,0.00,0.000000,,2013-01-09 10:52:00,
2013-01-09 04:02:00,21.0,7.0,-100.00,West,263,2.0,3.0,53,0.00,,,0.00,0.000000,,2013-01-09 11:02:00,
2013-01-09 04:12:00,21.0,7.0,-100.00,West,263,2.0,3.0,53,0.00,,,0.00,0.000000,,2013-01-09 11:12:00,
2013-01-09 04:22:00,21.0,7.0,-100.00,West,263,2.0,3.0,53,0.00,,,0.00,0.000000,,2013-01-09 11:22:00,
2013-01-09 04:23:00,21.0,7.0,-100.00,WSW,245,2.0,3.0,53,0.00,,,0.00,0.000000,,2013-01-09 11:23:00,
2013-01-09 04:43:00,21.0,7.0,-100.00,WSW,245,2.0,3.0,53,0.00,,,0.00,0.000000,,2013-01-09 11:43:00,
2013-01-09 04:53:00,21.0,7.0,-100.00,WSW,245,2.0,3.0,53,0.00,,,0.00,0.000000,,2013-01-09 11:53:00,
2013-01-09 05:03:00,21.0,7.0,-100.00,WSW,245,2.0,3.0,53,0.00,,,0.00,0.000000,,2013-01-09 12:03:00,
2013-01-09 05:12:00,21.0,7.0,-100.00,WSW,245,2.0,3.0,53,0.00,,,0.00,0.000000,,2013-01-09 12:12:00,
2013-01-09 05:43:00,17.0,3.0,-100.00,SW,221,2.0,3.0,54,0.00,,,0.00,0.000000,,2013-01-09 12:43:00,
2013-01-09 05:53:00,17.0,3.0,-100.00,SW,221,2.0,3.0,54,0.00,,,0.00,0.000000,,2013-01-09 12:53:00,
2013-01-09 06:03:00,17.0,3.0,-100.00,SW,221,2.0,3.0,54,0.00,,,0.00,0.000000,,2013-01-09 13:03:00,
2013-01-09 06:12:00,17.0,3.0,-100.00,SW,221,2.0,3.0,54,0.00,,,0.00,0.000000,,2013-01-09 13:12:00,
2013-01-09 06:22:00,17.0,3.0,-100.00,SW,221,2.0,3.0,54,0.00,,,0.00,0.000000,,2013-01-09 13:22:00,
2013-01-09 06:43:00,20.0,4.0,-100.00,West,274,2.0,3.0,50,0.00,,,0.00,0.000000,,2013-01-09 13:43:00,
2013-01-09 06:53:00,20.0,4.0,-100.00,West,274,2.0,3.0,50,0.00,,,0.00,0.000000,,2013-01-09 13:53:00,
2013-01-09 07:03:00,20.0,4.0,-100.00,West,274,2.0,3.0,50,0.00,,,0.00,0.000000,,2013-01-09 14:03:00,
2013-01-09 07:12:00,20.0,4.0,-100.00,West,274,2.0,3.0,50,0.00,,,0.00,0.000000,,2013-01-09 14:12:00,
2013-01-09 07:22:00,20.0,4.0,-100.00,West,274,2.0,3.0,50,0.00,,,0.00,0.000000,,2013-01-09 14:22:00,
2013-01-09 07:43:00,18.0,4.0,-100.00,NNW,339,1.0,3.0,54,0.00,,,0.00,1.000000,,2013-01-09 14:43:00,
2013-01-09 07:53:00,18.0,4.0,-100.00,NNW,339,1.0,3.0,54,0.00,,,0.00,1.000000,,2013-01-09 14:53:00,
2013-01-09 08:03:00,18.0,4.0,-100.00,NNW,339,1.0,3.0,54,0.00,,,0.00,1.000000,,2013-01-09 15:03:00,
2013-01-09 08:12:00,18.0,4.0,-100.00,NNW,339,1.0,3.0,54,0.00,,,0.00,1.000000,,2013-01-09 15:12:00,
2013-01-09 08:22:00,18.0,4.0,-100.00,NNW,339,1.0,3.0,54,0.00,,,0.00,1.000000,,2013-01-09 15:22:00,
2013-01-09 08:43:00,27.0,5.0,-100.00,South,174,1.0,3.0,39,0.00,,,0.00,142.000000,,2013-01-09 15:43:00,
2013-01-09 08:53:00,27.0,5.0,-100.00,South,174,1.0,3.0,39,0.00,,,0.00,142.000000,,2013-01-09 15:53:00,
2013-01-09 09:03:00,27.0,5.0,-100.00,South,174,1.0,3.0,39,0.00,,,0.00,142.000000,,2013-01-09 16:03:00,
2013-01-09 09:12:00,27.0,5.0,-100.00,South,174,1.0,3.0,39,0.00,,,0.00,142.000000,,2013-01-09 16:12:00,
2013-01-09 09:22:00,27.0,5.0,-100.00,South,174,1.0,3.0,39,0.00,,,0.00,142.000000,,2013-01-09 16:22:00,
2013-01-09 09:43:00,31.0,5.0,-100.00,SE,138,2.0,3.0,33,0.00,,,0.00,384.000000,,2013-01-09 16:43:00,
2013-01-09 09:53:00,31.0,5.0,-100.00,SE,138,2.0,3.0,33,0.00,,,0.00,384.000000,,2013-01-09 16:53:00,
2013-01-09 10:03:00,31.0,5.0,-100.00,SE,138,2.0,3.0,33,0.00,,,0.00,384.000000,,2013-01-09 17:03:00,
2013-01-09 10:12:00,31.0,5.0,-100.00,SE,138,2.0,3.0,33,0.00,,,0.00,384.000000,,2013-01-09 17:12:00,
2013-01-09 10:22:00,31.0,5.0,-100.00,SE,138,2.0,3.0,33,0.00,,,0.00,384.000000,,2013-01-09 17:22:00,
2013-01-09 10:23:00,39.0,10.0,-100.00,SE,131,1.0,3.0,30,0.00,,,0.00,562.000000,,2013-01-09 17:23:00,
2013-01-09 10:43:00,39.0,10.0,-100.00,SE,131,1.0,3.0,30,0.00,,,0.00,562.000000,,2013-01-09 17:43:00,
2013-01-09 10:53:00,39.0,10.0,-100.00,SE,131,1.0,3.0,30,0.00,,,0.00,562.000000,,2013-01-09 17:53:00,
2013-01-09 11:03:00,39.0,10.0,-100.00,SE,131,1.0,3.0,30,0.00,,,0.00,562.000000,,2013-01-09 18:03:00,
2013-01-09 11:12:00,39.0,10.0,-100.00,SE,131,1.0,3.0,30,0.00,,,0.00,562.000000,,2013-01-09 18:12:00,
2013-01-09 11:43:00,39.0,6.0,-100.00,SSE,153,2.0,3.0,25,0.00,,,0.00,660.000000,,2013-01-09 18:43:00,
2013-01-09 11:53:00,39.0,6.0,-100.00,SSE,153,2.0,3.0,25,0.00,,,0.00,660.000000,,2013-01-09 18:53:00,
2013-01-09 12:03:00,39.0,6.0,-100.00,SSE,153,2.0,3.0,25,0.00,,,0.00,660.000000,,2013-01-09 19:03:00,
2013-01-09 12:12:00,39.0,6.0,-100.00,SSE,153,2.0,3.0,25,0.00,,,0.00,660.000000,,2013-01-09 19:12:00,
2013-01-09 12:22:00,39.0,6.0,-100.00,SSE,153,2.0,3.0,25,0.00,,,0.00,660.000000,,2013-01-09 19:22:00,
2013-01-09 12:23:00,41.0,10.0,-100.00,ESE,111,2.0,4.0,27,0.00,,,0.00,697.000000,,2013-01-09 19:23:00,
2013-01-09 12:53:00,41.0,10.0,-100.00,ESE,111,2.0,4.0,27,0.00,,,0.00,697.000000,,2013-01-09 19:53:00,
2013-01-09 13:03:00,41.0,10.0,-100.00,ESE,111,2.0,4.0,27,0.00,,,0.00,697.000000,,2013-01-09 20:03:00,
2013-01-09 13:12:00,41.0,10.0,-100.00,ESE,111,2.0,4.0,27,0.00,,,0.00,697.000000,,2013-01-09 20:12:00,
2013-01-09 13:43:00,42.0,10.0,-100.00,SE,132,2.0,3.0,27,0.00,,,0.00,658.000000,,2013-01-09 20:43:00,
2013-01-09 13:53:00,42.0,10.0,-100.00,SE,132,2.0,3.0,27,0.00,,,0.00,658.000000,,2013-01-09 20:53:00,
2013-01-09 14:03:00,42.0,10.0,-100.00,SE,132,2.0,3.0,27,0.00,,,0.00,658.000000,,2013-01-09 21:03:00,
2013-01-09 14:13:00,42.0,10.0,-100.00,SE,132,2.0,3.0,27,0.00,,,0.00,658.000000,,2013-01-09 21:13:00,
2013-01-09 14:22:00,42.0,10.0,-100.00,SE,132,2.0,3.0,27,0.00,,,0.00,658.000000,,2013-01-09 21:22:00,
2013-01-09 14:43:00,43.0,10.0,-100.00,ESE,122,2.0,4.0,25,0.00,,,0.00,544.000000,,2013-01-09 21:43:00,
2013-01-09 14:53:00,43.0,10.0,-100.00,ESE,122,2.0,4.0,25,0.00,,,0.00,544.000000,,2013-01-09 21:53:00,
2013-01-09 15:03:00,43.0,10.0,-100.00,ESE,122,2.0,4.0,25,0.00,,,0.00,544.000000,,2013-01-09 22:03:00,
2013-01-09 15:12:00,43.0,10.0,-100.00,ESE,122,2.0,4.0,25,0.00,,,0.00,544.000000,,2013-01-09 22:12:00,
2013-01-09 15:22:00,43.0,10.0,-100.00,ESE,122,2.0,4.0,25,0.00,,,0.00,544.000000,,2013-01-09 22:22:00,
2013-01-09 15:43:00,41.0,13.0,-100.00,WNW,291,1.0,3.0,31,0.00,,,0.00,373.000000,,2013-01-09 22:43:00,
2013-01-09 15:52:00,41.0,13.0,-100.00,WNW,291,1.0,3.0,31,0.00,,,0.00,373.000000,,2013-01-09 22:52:00,
2013-01-09 16:02:00,41.0,13.0,-100.00,WNW,291,1.0,3.0,31,0.00,,,0.00,373.000000,,2013-01-09 23:02:00,
2013-01-09 16:13:00,41.0,13.0,-100.00,WNW,291,1.0,3.0,31,0.00,,,0.00,373.000000,,2013-01-09 23:13:00,
2013-01-09 16:22:00,41.0,13.0,-100.00,WNW,291,1.0,3.0,31,0.00,,,0.00,373.000000,,2013-01-09 23:22:00,
2013-01-09 16:43:00,30.0,10.0,-100.00,WNW,297,2.0,4.0,42,0.00,,,0.00,73.000000,,2013-01-09 23:43:00,
2013-01-09 16:53:00,30.0,10.0,-100.00,WNW,297,2.0,4.0,42,0.00,,,0.00,73.000000,,2013-01-09 23:53:00,
2013-01-09 17:03:00,30.0,10.0,-100.00,WNW,297,2.0,4.0,42,0.00,,,0.00,73.000000,,2013-01-10 00:03:00,
2013-01-09 17:12:00,30.0,10.0,-100.00,WNW,297,2.0,4.0,42,0.00,,,0.00,73.000000,,2013-01-10 00:12:00,
2013-01-09 17:22:00,30.0,10.0,-100.00,WNW,297,2.0,4.0,42,0.00,,,0.00,73.000000,,2013-01-10 00:22:00,
2013-01-09 17:43:00,28.0,9.0,-100.00,WNW,282,3.0,4.0,44,0.00,,,0.00,10.000000,,2013-01-10 00:43:00,
2013-01-09 17:53:00,28.0,9.0,-100.00,WNW,282,3.0,4.0,44,0.00,,,0.00,10.000000,,2013-01-10 00:53:00,
2013-01-09 18:02:00,28.0,9.0,-100.00,WNW,282,3.0,4.0,44,0.00,,,0.00,10.000000,,2013-01-10 01:02:00,
2013-01-09 18:12:00,28.0,9.0,-100.00,WNW,282,3.0,4.0,44,0.00,,,0.00,10.000000,,2013-01-10 01:12:00,
2013-01-09 18:22:00,28.0,9.0,-100.00,WNW,282,3.0,4.0,44,0.00,,,0.00,10.000000,,2013-01-10 01:22:00,
2013-01-09 18:43:00,26.0,9.0,-100.00,WNW,295,2.0,3.0,49,0.00,,,0.00,0.000000,,2013-01-10 01:43:00,
2013-01-09 18:53:00,26.0,9.0,-100.00,WNW,295,2.0,3.0,49,0.00,,,0.00,0.000000,,2013-01-10 01:53:00,
2013-01-09 19:03:00,26.0,9.0,-100.00,WNW,295,2.0,3.0,49,0.00,,,0.00,0.000000,,2013-01-10 02:03:00,
2013-01-09 19:12:00,26.0,9.0,-100.00,WNW,295,2.0,3.0,49,0.00,,,0.00,0.000000,,2013-01-10 02:12:00,
2013-01-09 19:22:00,26.0,9.0,-100.00,WNW,295,2.0,3.0,49,0.00,,,0.00,0.000000,,2013-01-10 02:22:00,
2013-01-09 20:03:00,26.0,9.0,-100.00,WNW,294,3.0,3.0,47,0.00,,,0.00,0.000000,,2013-01-10 03:03:00,
2013-01-09 20:12:00,26.0,9.0,-100.00,WNW,294,3.0,3.0,47,0.00,,,0.00,0.000000,,2013-01-10 03:12:00,
2013-01-09 20:22:00,26.0,9.0,-100.00,WNW,294,3.0,3.0,47,0.00,,,0.00,0.000000,,2013-01-10 03:22:00,
2013-01-09 20:43:00,25.0,8.0,-100.00,WNW,282,3.0,3.0,47,0.00,,,0.00,0.000000,,2013-01-10 03:43:00,
2013-01-09 20:53:00,25.0,8.0,-100.00,WNW,282,3.0,3.0,47,0.00,,,0.00,0.000000,,2013-01-10 03:53:00,
2013-01-09 21:02:00,25.0,8.0,-100.00,WNW,282,3.0,3.0,47,0.00,,,0.00,0.000000,,2013-01-10 04:02:00,
2013-01-09 21:12:00,25.0,8.0,-100.00,WNW,282,3.0,3.0,47,0.00,,,0.00,0.000000,,2013-01-10 04:12:00,
2013-01-09 21:22:00,25.0,8.0,-100.00,WNW,282,3.0,3.0,47,0.00,,,0.00,0.000000,,2013-01-10 04:22:00,
2013-01-09 21:43:00,26.0,7.0,-100.00,WNW,288,2.0,4.0,44,0.00,,,0.00,0.000000,,2013-01-10 04:43:00,
2013-01-09 21:52:00,26.0,7.0,-100.00,WNW,288,2.0,4.0,44,0.00,,,0.00,0.000000,,2013-01-10 04:52:00,
2013-01-09 22:03:00,26.0,7.0,-100.00,WNW,288,2.0,4.0,44,0.00,,,0.00,0.000000,,2013-01-10 05:03:00,
2013-01-09 22:12:00,26.0,7.0,-100.00,WNW,288,2.0,4.0,44,0.00,,,0.00,0.000000,,2013-01-10 05:12:00,
2013-01-09 22:22:00,26.0,7.0,-100.00,WNW,288,2.0,4.0,44,0.00,,,0.00,0.000000,,2013-01-10 05:22:00,
2013-01-09 22:43:00,24.0,6.0,-100.00,West,281,2.0,3.0,46,0.00,,,0.00,0.000000,,2013-01-10 05:43:00,
2013-01-09 22:53:00,24.0,6.0,-100.00,West,281,2.0,3.0,46,0.00,,,0.00,0.000000,,2013-01-10 05:53:00,
2013-01-09 23:02:00,24.0,6.0,-100.00,West,281,2.0,3.0,46,0.00,,,0.00,0.000000,,2013-01-10 06:02:00,
2013-01-09 23:12:00,24.0,6.0,-100.00,West,281,2.0,3.0,46,0.00,,,0.00,0.000000,,2013-01-10 06:12:00,
2013-01-09 23:22:00,24.0,6.0,-100.00,West,281,2.0,3.0,46,0.00,,,0.00,0.000000,,2013-01-10 06:22:00,
2013-01-09 23:42:00,22.0,6.0,-100.00,WNW,293,2.0,3.0,50,0.00,,,0.00,0.000000,,2013-01-10 06:42:00,
2013-01-09 23:52:00,22.0,6.0,-100.00,WNW,293,2.0,3.0,50,0.00,,,0.00,0.000000,,2013-01-10 06:52:00,